createdAt,value
2023-02-13T00:01:07.232Z,8.30
2023-02-13T00:03:35.469Z,8.30
2023-02-13T00:06:03.532Z,8.30
2023-02-13T00:08:31.556Z,8.40
2023-02-13T00:10:59.792Z,8.30
2023-02-13T00:13:29.261Z,8.30
2023-02-13T00:15:58.961Z,8.30
2023-02-13T00:18:27.437Z,8.30
2023-02-13T00:21:02.693Z,8.30
2023-02-13T00:23:32.098Z,8.20
2023-02-13T00:26:02.231Z,8.20
2023-02-13T00:28:31.676Z,8.20
2023-02-13T00:31:05.234Z,8.20
2023-02-13T00:33:33.340Z,8.20
2023-02-13T00:36:06.966Z,8.20
2023-02-13T00:38:35.415Z,8.20
2023-02-13T00:41:03.855Z,8.20
2023-02-13T00:43:34.180Z,8.30
2023-02-13T00:46:02.252Z,8.20
2023-02-13T00:48:32.366Z,8.10
2023-02-13T00:51:00.649Z,8.20
2023-02-13T00:53:31.284Z,8.20
2023-02-13T00:55:59.354Z,8.20
2023-02-13T00:58:28.835Z,8.20
2023-02-13T01:01:00.264Z,8.10
2023-02-13T01:03:28.539Z,8.20
2023-02-13T01:05:57.783Z,8.10
2023-02-13T01:08:28.233Z,8.00
2023-02-13T01:10:57.504Z,8.10
2023-02-13T01:13:26.022Z,8.00
2023-02-13T01:15:55.540Z,8.00
2023-02-13T01:18:25.360Z,7.90
2023-02-13T01:21:01.588Z,7.90
2023-02-13T01:23:32.234Z,7.80
2023-02-13T01:26:00.947Z,7.80
2023-02-13T01:28:29.452Z,7.90
2023-02-13T01:30:59.131Z,7.90
2023-02-13T01:33:30.471Z,7.90
2023-02-13T01:36:00.188Z,7.80
2023-02-13T01:38:29.131Z,7.80
2023-02-13T01:40:57.348Z,7.80
2023-02-13T01:43:26.096Z,7.70
2023-02-13T01:45:58.732Z,7.70
2023-02-13T01:48:31.457Z,7.70
2023-02-13T01:51:05.847Z,7.60
2023-02-13T01:53:38.055Z,7.60
2023-02-13T01:56:12.919Z,7.50
2023-02-13T01:58:43.725Z,7.60
2023-02-13T02:01:12.791Z,7.60
2023-02-13T02:03:46.991Z,7.60
2023-02-13T02:06:19.945Z,7.50
2023-02-13T02:08:50.120Z,7.50
2023-02-13T02:11:28.768Z,7.50
2023-02-13T02:13:58.920Z,7.40
2023-02-13T02:16:34.184Z,7.40
2023-02-13T02:19:12.122Z,7.30
2023-02-13T02:21:50.984Z,7.30
2023-02-13T02:25:14.612Z,7.20
2023-02-13T02:28:08.985Z,7.20
2023-02-13T02:31:18.702Z,7.30
2023-02-13T02:33:57.674Z,7.20
2023-02-13T02:36:41.064Z,7.20
2023-02-13T02:39:18.581Z,7.20
2023-02-13T02:41:59.245Z,7.10
2023-02-13T02:44:34.340Z,7.10
2023-02-13T02:47:28.369Z,7.20
2023-02-13T02:50:07.499Z,7.10
2023-02-13T02:52:56.564Z,7.20
2023-02-13T02:55:36.476Z,7.20
2023-02-13T02:58:30.429Z,7.20
2023-02-13T03:01:21.309Z,7.20
2023-02-13T03:04:08.653Z,7.20
2023-02-13T03:06:43.345Z,7.10
2023-02-13T03:09:33.978Z,7.10
2023-02-13T03:12:20.834Z,7.00
2023-02-13T03:14:48.873Z,7.00
2023-02-13T03:17:36.187Z,7.00
2023-02-13T03:20:34.433Z,7.00
2023-02-13T03:23:17.658Z,6.90
2023-02-13T03:26:01.257Z,6.90
2023-02-13T03:29:05.721Z,6.90
2023-02-13T03:31:39.140Z,6.90
2023-02-13T03:34:10.343Z,6.90
2023-02-13T03:37:05.719Z,6.90
2023-02-13T03:39:47.646Z,6.80
2023-02-13T03:42:22.802Z,6.80
2023-02-13T03:45:10.100Z,6.80
2023-02-13T03:47:39.546Z,6.80
2023-02-13T03:50:10.105Z,6.80
2023-02-13T03:52:43.827Z,6.70
2023-02-13T03:55:33.640Z,6.60
2023-02-13T03:58:26.177Z,6.50
2023-02-13T04:00:58.721Z,6.50
2023-02-13T04:03:32.563Z,6.50
2023-02-13T04:06:06.571Z,6.50
2023-02-13T04:08:34.640Z,6.40
2023-02-13T04:11:11.255Z,6.40
2023-02-13T04:13:47.032Z,6.50
2023-02-13T04:16:19.580Z,6.50
2023-02-13T04:18:49.437Z,6.30
2023-02-13T04:21:17.412Z,6.20
2023-02-13T04:23:45.415Z,6.20
2023-02-13T04:26:19.401Z,6.20
2023-02-13T04:28:47.446Z,6.10
2023-02-13T04:31:15.907Z,6.10
2023-02-13T04:33:43.974Z,5.90
2023-02-13T04:36:11.985Z,5.70
2023-02-13T04:38:39.981Z,5.50
2023-02-13T04:41:08.089Z,5.60
2023-02-13T04:43:37.570Z,5.60
2023-02-13T04:46:06.205Z,5.50
2023-02-13T04:48:34.248Z,5.50
2023-02-13T04:51:02.251Z,5.40
2023-02-13T04:53:30.326Z,5.30
2023-02-13T04:55:58.386Z,5.20
2023-02-13T04:58:26.479Z,5.20
2023-02-13T05:00:56.125Z,5.10
2023-02-13T05:03:24.366Z,5.10
2023-02-13T05:05:52.473Z,4.90
2023-02-13T05:08:20.555Z,4.90
2023-02-13T05:10:49.183Z,4.90
2023-02-13T05:13:17.258Z,5.10
2023-02-13T05:15:45.298Z,5.10
2023-02-13T05:18:15.514Z,5.20
2023-02-13T05:20:43.510Z,5.20
2023-02-13T05:23:23.274Z,5.20
2023-02-13T05:25:51.646Z,5.20
2023-02-13T05:28:48.473Z,5.10
2023-02-13T05:31:16.559Z,5.10
2023-02-13T05:33:45.962Z,5.20
2023-02-13T05:36:14.034Z,5.20
2023-02-13T05:38:42.229Z,5.20
2023-02-13T05:41:10.207Z,5.30
2023-02-13T05:43:38.199Z,5.30
2023-02-13T05:46:07.636Z,5.20
2023-02-13T05:48:36.287Z,5.30
2023-02-13T05:51:07.287Z,5.20
2023-02-13T05:53:36.160Z,5.10
2023-02-13T05:56:05.880Z,5.20
2023-02-13T05:58:34.873Z,5.30
2023-02-13T06:01:03.056Z,5.30
2023-02-13T06:03:33.155Z,5.10
2023-02-13T06:06:01.286Z,5.10
2023-02-13T06:08:30.911Z,5.00
2023-02-13T06:10:59.372Z,5.20
2023-02-13T06:13:27.740Z,5.20
2023-02-13T06:15:55.905Z,5.20
2023-02-13T06:18:26.508Z,5.10
2023-02-13T06:20:54.659Z,5.00
2023-02-13T06:23:22.824Z,5.10
2023-02-13T06:25:53.317Z,5.10
2023-02-13T06:28:21.460Z,5.10
2023-02-13T06:30:52.220Z,5.10
2023-02-13T06:33:20.395Z,5.00
2023-02-13T06:35:48.557Z,5.00
2023-02-13T06:38:19.008Z,5.00
2023-02-13T06:40:47.364Z,5.10
2023-02-13T06:43:17.871Z,5.10
2023-02-13T06:45:46.881Z,5.10
2023-02-13T06:48:15.628Z,5.00
2023-02-13T06:50:43.955Z,5.00
2023-02-13T06:53:12.459Z,5.00
2023-02-13T06:55:40.525Z,5.10
2023-02-13T06:58:08.670Z,5.10
2023-02-13T07:00:38.471Z,5.10
2023-02-13T07:03:08.109Z,5.10
2023-02-13T07:05:36.351Z,5.30
2023-02-13T07:08:04.355Z,5.60
2023-02-13T07:10:32.475Z,5.80
2023-02-13T07:13:06.328Z,6.10
2023-02-13T07:15:35.466Z,6.40
2023-02-13T07:18:05.586Z,6.60
2023-02-13T07:20:34.065Z,6.80
2023-02-13T07:23:02.688Z,7.20
2023-02-13T07:25:31.449Z,7.50
2023-02-13T07:28:03.641Z,7.50
2023-02-13T07:30:32.247Z,7.30
2023-02-13T07:33:01.804Z,7.20
2023-02-13T07:38:24.875Z,7.00
2023-02-13T07:40:52.902Z,8.00
2023-02-13T07:43:21.060Z,8.40
2023-02-13T07:45:49.734Z,8.30
2023-02-13T07:48:17.811Z,8.40
2023-02-13T07:50:45.840Z,8.90
2023-02-13T07:53:13.873Z,9.70
2023-02-13T07:55:44.066Z,10.40
2023-02-13T07:58:12.343Z,10.60
2023-02-13T08:00:40.461Z,10.10
2023-02-13T08:03:08.601Z,9.70
2023-02-13T08:05:37.024Z,10.00
2023-02-13T08:08:05.374Z,10.40
2023-02-13T08:10:50.883Z,10.70
2023-02-13T08:13:20.680Z,9.90
2023-02-13T08:15:49.113Z,10.20
2023-02-13T08:18:18.918Z,10.80
2023-02-13T08:20:48.513Z,10.80
2023-02-13T08:23:16.705Z,10.50
2023-02-13T08:25:45.045Z,11.10
2023-02-13T08:28:13.442Z,11.30
2023-02-13T08:30:42.918Z,11.10
2023-02-13T08:33:10.967Z,10.50
2023-02-13T08:35:43.140Z,10.50
2023-02-13T08:38:11.319Z,11.40
2023-02-13T08:40:39.390Z,11.40
2023-02-13T08:43:08.481Z,11.70
2023-02-13T08:45:37.633Z,11.90
2023-02-13T08:48:07.579Z,11.80
2023-02-13T08:50:37.147Z,12.10
2023-02-13T08:53:05.736Z,12.30
2023-02-13T08:55:33.794Z,11.20
2023-02-13T08:58:02.703Z,11.20
2023-02-13T09:00:31.135Z,11.80
2023-02-13T09:03:02.747Z,12.00
2023-02-13T09:05:32.981Z,11.10
2023-02-13T09:08:02.827Z,11.60
2023-02-13T09:10:31.122Z,10.90
2023-02-13T09:12:59.410Z,11.10
2023-02-13T09:15:27.475Z,9.90
2023-02-13T09:17:55.741Z,9.90
2023-02-13T09:20:23.848Z,10.90
2023-02-13T09:22:53.325Z,12.00
2023-02-13T09:25:21.712Z,11.50
2023-02-13T09:27:49.758Z,10.50
2023-02-13T09:30:23.353Z,11.00
2023-02-13T09:32:52.139Z,12.20
2023-02-13T09:35:20.306Z,12.30
2023-02-13T09:37:48.619Z,12.80
2023-02-13T09:40:23.903Z,13.30
2023-02-13T09:42:53.807Z,13.40
2023-02-13T09:45:24.098Z,13.60
2023-02-13T09:47:53.159Z,13.50
2023-02-13T09:50:24.882Z,14.30
2023-02-13T09:52:55.511Z,14.50
2023-02-13T09:55:29.888Z,14.10
2023-02-13T09:58:03.999Z,14.00
2023-02-13T10:00:36.078Z,14.30
2023-02-13T10:03:28.941Z,14.70
2023-02-13T10:06:07.660Z,14.90
2023-02-13T10:09:11.617Z,15.20
2023-02-13T10:11:55.093Z,15.60
2023-02-13T10:14:28.202Z,15.60
2023-02-13T10:17:02.416Z,15.90
2023-02-13T10:19:36.999Z,16.10
2023-02-13T10:22:11.476Z,15.70
2023-02-13T10:24:44.000Z,15.20
2023-02-13T10:27:21.966Z,15.40
2023-02-13T10:30:06.869Z,15.50
2023-02-13T10:32:48.195Z,15.00
2023-02-13T10:35:28.736Z,15.30
2023-02-13T10:37:59.289Z,15.90
2023-02-13T10:40:33.741Z,16.00
2023-02-13T10:43:10.270Z,15.50
2023-02-13T10:45:53.239Z,15.00
2023-02-13T10:48:45.588Z,15.60
2023-02-13T10:51:20.694Z,16.00
2023-02-13T10:54:03.048Z,15.90
2023-02-13T10:56:34.715Z,16.30
2023-02-13T10:59:31.087Z,16.50
2023-02-13T11:02:04.387Z,16.70
2023-02-13T11:04:33.256Z,16.60
2023-02-13T11:07:03.643Z,16.60
2023-02-13T11:09:34.978Z,16.70
2023-02-13T11:12:25.843Z,17.40
2023-02-13T11:15:00.318Z,17.50
2023-02-13T11:17:30.864Z,16.60
2023-02-13T11:20:01.255Z,16.70
2023-02-13T11:22:34.341Z,16.30
2023-02-13T11:28:12.970Z,17.10
2023-02-13T11:37:17.949Z,17.10
2023-02-13T11:42:53.172Z,17.50
2023-02-13T11:45:24.433Z,18.20
2023-02-13T11:47:54.858Z,18.30
2023-02-13T11:50:26.892Z,18.40
2023-02-13T11:52:58.937Z,17.90
2023-02-13T11:55:31.946Z,17.90
2023-02-13T11:58:02.677Z,18.40
2023-02-13T12:00:37.673Z,18.50
2023-02-13T12:03:26.728Z,18.80
2023-02-13T12:06:14.015Z,19.00
2023-02-13T12:08:45.807Z,19.70
2023-02-13T12:11:23.391Z,19.30
2023-02-13T12:13:52.498Z,19.30
2023-02-13T12:16:31.140Z,18.50
2023-02-13T12:19:03.305Z,17.80
2023-02-13T12:21:43.228Z,17.50
2023-02-13T12:24:23.136Z,17.50
2023-02-13T12:26:59.577Z,17.40
2023-02-13T12:29:57.016Z,17.50
2023-02-13T12:32:36.267Z,17.90
2023-02-13T12:35:20.592Z,17.80
2023-02-13T12:38:04.262Z,17.80
2023-02-13T12:40:58.155Z,18.90
2023-02-13T12:43:54.398Z,18.50
2023-02-13T12:46:31.020Z,18.00
2023-02-13T12:49:10.247Z,17.40
2023-02-13T12:51:50.323Z,18.00
2023-02-13T12:54:35.257Z,18.70
2023-02-13T12:57:24.876Z,19.10
2023-02-13T13:00:09.798Z,18.50
2023-02-13T13:02:50.751Z,17.90
2023-02-13T13:05:30.169Z,17.90
2023-02-13T13:08:27.294Z,18.40
2023-02-13T13:11:12.624Z,17.80
2023-02-13T13:13:54.803Z,16.70
2023-02-13T13:16:34.102Z,16.50
2023-02-13T13:19:11.324Z,16.60
2023-02-13T13:21:47.915Z,17.20
2023-02-13T13:24:28.395Z,17.60
2023-02-13T13:26:57.759Z,17.80
2023-02-13T13:29:33.715Z,17.40
2023-02-13T13:32:04.716Z,17.00
2023-02-13T13:34:35.473Z,16.30
2023-02-13T13:37:11.753Z,16.10
2023-02-13T13:39:48.290Z,15.90
2023-02-13T13:42:24.604Z,16.10
2023-02-13T13:45:12.512Z,16.50
2023-02-13T13:47:53.277Z,16.60
2023-02-13T13:50:24.522Z,16.40
2023-02-13T13:53:14.738Z,16.20
2023-02-13T13:56:06.779Z,16.20
2023-02-13T13:58:45.737Z,16.20
2023-02-13T14:01:27.334Z,16.50
2023-02-13T14:03:56.797Z,16.20
2023-02-13T14:06:26.303Z,16.10
2023-02-13T14:09:03.052Z,16.20
2023-02-13T14:11:45.086Z,16.30
2023-02-13T14:14:53.559Z,16.30
2023-02-13T14:17:54.779Z,16.10
2023-02-13T14:20:39.761Z,15.40
2023-02-13T14:23:15.498Z,15.20
2023-02-13T14:25:43.643Z,14.80
2023-02-13T14:28:23.075Z,14.70
2023-02-13T14:30:54.017Z,14.60
2023-02-13T14:33:28.537Z,14.50
2023-02-13T14:36:07.069Z,14.60
2023-02-13T14:38:36.552Z,14.50
2023-02-13T14:41:07.393Z,14.60
2023-02-13T14:43:52.087Z,14.50
2023-02-13T14:46:34.293Z,14.40
2023-02-13T14:49:08.907Z,14.30
2023-02-13T14:51:41.047Z,14.30
2023-02-13T14:54:20.215Z,14.20
2023-02-13T14:56:51.126Z,14.10
2023-02-13T14:59:23.430Z,14.10
2023-02-13T15:01:54.820Z,14.00
2023-02-13T15:04:31.997Z,13.90
2023-02-13T15:07:02.680Z,13.90
2023-02-13T15:09:38.849Z,13.80
2023-02-13T15:12:26.152Z,13.70
2023-02-13T15:14:54.462Z,13.60
2023-02-13T15:17:25.425Z,13.50
2023-02-13T15:19:57.739Z,13.50
2023-02-13T15:22:34.753Z,13.70
2023-02-13T15:25:03.213Z,13.70
2023-02-13T15:27:35.447Z,13.50
2023-02-13T15:30:06.881Z,13.40
2023-02-13T15:32:37.733Z,13.40
2023-02-13T15:35:24.417Z,13.40
2023-02-13T15:37:52.732Z,13.30
2023-02-13T15:40:26.321Z,13.30
2023-02-13T15:42:55.411Z,13.10
2023-02-13T15:45:26.113Z,13.10
2023-02-13T15:47:56.194Z,13.00
2023-02-13T15:50:31.304Z,12.90
2023-02-13T15:53:00.978Z,12.90
2023-02-13T15:55:31.858Z,12.80
2023-02-13T15:58:02.016Z,12.70
2023-02-13T16:00:35.032Z,12.70
2023-02-13T16:03:05.214Z,12.60
2023-02-13T16:05:41.448Z,12.40
2023-02-13T16:08:38.133Z,12.40
2023-02-13T16:11:31.554Z,12.20
2023-02-13T16:14:07.344Z,12.10
2023-02-13T16:16:45.509Z,11.90
2023-02-13T16:19:25.762Z,11.70
2023-02-13T16:21:57.377Z,11.60
2023-02-13T16:24:27.342Z,11.50
2023-02-13T16:26:55.779Z,11.40
2023-02-13T16:29:27.284Z,11.30
2023-02-13T16:32:05.473Z,11.20
2023-02-13T16:34:33.596Z,11.00
2023-02-13T16:37:03.386Z,10.90
2023-02-13T16:39:32.947Z,10.70
2023-02-13T16:42:02.424Z,10.70
2023-02-13T16:44:32.766Z,10.60
2023-02-13T16:47:02.544Z,10.50
2023-02-13T16:49:33.310Z,10.40
2023-02-13T16:52:12.413Z,10.30
2023-02-13T16:54:53.700Z,10.20
2023-02-13T16:57:27.050Z,10.10
2023-02-13T17:00:03.868Z,10.00
2023-02-13T17:02:33.048Z,9.90
2023-02-13T17:05:21.357Z,9.80
2023-02-13T17:07:53.162Z,9.80
2023-02-13T17:10:27.102Z,10.00
2023-02-13T17:12:58.266Z,9.90
2023-02-13T17:15:27.982Z,9.80
2023-02-13T17:17:56.313Z,9.70
2023-02-13T17:20:26.375Z,9.50
2023-02-13T17:22:57.260Z,9.50
2023-02-13T17:25:28.082Z,9.30
2023-02-13T17:27:57.649Z,9.10
2023-02-13T17:30:27.685Z,8.90
2023-02-13T17:32:59.916Z,8.80
2023-02-13T17:35:27.928Z,8.90
2023-02-13T17:37:57.668Z,8.90
2023-02-13T17:40:29.481Z,8.70
2023-02-13T17:42:58.930Z,8.40
2023-02-13T17:45:29.168Z,8.20
2023-02-13T17:47:58.051Z,8.10
2023-02-13T17:50:26.893Z,8.00
2023-02-13T17:52:55.725Z,8.00
2023-02-13T17:55:27.034Z,8.10
2023-02-13T17:57:57.507Z,8.00
2023-02-13T18:00:27.892Z,8.00
2023-02-13T18:02:56.403Z,7.90
2023-02-13T18:05:24.432Z,7.80
2023-02-13T18:07:52.484Z,7.80
2023-02-13T18:10:23.148Z,7.80
2023-02-13T18:12:53.966Z,7.80
2023-02-13T18:15:22.469Z,7.80
2023-02-13T18:17:50.668Z,7.90
2023-02-13T18:20:20.614Z,7.90
2023-02-13T18:22:50.456Z,7.80
2023-02-13T18:25:19.353Z,7.70
2023-02-13T18:27:48.043Z,7.50
2023-02-13T18:30:19.989Z,7.40
2023-02-13T18:32:53.558Z,7.30
2023-02-13T18:35:22.323Z,7.20
2023-02-13T18:37:50.344Z,7.10
2023-02-13T18:40:18.782Z,7.20
2023-02-13T18:42:46.838Z,7.10
2023-02-13T18:45:14.917Z,7.10
2023-02-13T18:47:44.306Z,7.10
2023-02-13T18:50:12.719Z,7.10
2023-02-13T18:52:40.761Z,7.00
2023-02-13T18:55:09.347Z,6.80
2023-02-13T18:57:37.419Z,6.80
2023-02-13T19:00:07.126Z,6.90
2023-02-13T19:02:35.413Z,6.80
2023-02-13T19:05:06.296Z,6.70
2023-02-13T19:07:34.434Z,6.70
2023-02-13T19:10:02.484Z,6.80
2023-02-13T19:12:31.256Z,6.70
2023-02-13T19:14:59.731Z,6.70
2023-02-13T19:17:27.834Z,6.70
2023-02-13T19:19:56.028Z,6.60
2023-02-13T19:22:25.449Z,6.60
2023-02-13T19:24:53.495Z,6.50
2023-02-13T19:27:21.710Z,6.40
2023-02-13T19:29:49.735Z,6.40
2023-02-13T19:32:17.814Z,6.30
2023-02-13T19:34:46.867Z,6.30
2023-02-13T19:37:14.917Z,6.20
2023-02-13T19:39:44.278Z,6.20
2023-02-13T19:42:12.437Z,6.20
2023-02-13T19:44:40.759Z,6.20
2023-02-13T19:47:08.764Z,6.10
2023-02-13T19:49:36.726Z,6.10
2023-02-13T19:52:04.800Z,6.20
2023-02-13T19:54:33.998Z,6.20
2023-02-13T19:57:05.641Z,6.20
2023-02-13T19:59:33.651Z,6.10
2023-02-13T20:02:02.079Z,6.00
2023-02-13T20:04:30.084Z,5.90
2023-02-13T20:06:58.645Z,5.90
2023-02-13T20:09:26.629Z,5.90
2023-02-13T20:11:54.687Z,5.80
2023-02-13T20:14:24.053Z,5.80
2023-02-13T20:16:52.056Z,5.80
2023-02-13T20:19:20.155Z,5.70
2023-02-13T20:21:48.338Z,5.80
2023-02-13T20:24:16.567Z,6.00
2023-02-13T20:26:44.605Z,6.20
2023-02-13T20:29:13.072Z,6.30
2023-02-13T20:31:42.935Z,6.40
2023-02-13T20:34:11.911Z,6.30
2023-02-13T20:36:40.130Z,6.20
2023-02-13T20:39:09.278Z,6.40
2023-02-13T20:41:38.994Z,6.50
2023-02-13T20:44:09.010Z,6.70
2023-02-13T20:46:39.234Z,6.80
2023-02-13T20:49:08.955Z,6.70
2023-02-13T20:51:37.120Z,6.80
2023-02-13T20:54:06.172Z,7.00
2023-02-13T20:56:34.214Z,7.10
2023-02-13T20:59:03.467Z,7.20
2023-02-13T21:01:34.103Z,7.30
2023-02-13T21:04:03.149Z,7.20
2023-02-13T21:06:34.326Z,7.20
2023-02-13T21:09:03.539Z,7.20
2023-02-13T21:11:32.707Z,7.20
2023-02-13T21:14:01.483Z,7.30
2023-02-13T21:16:31.840Z,7.30
2023-02-13T21:19:02.539Z,7.20
2023-02-13T21:21:34.259Z,7.20
2023-02-13T21:24:06.912Z,7.10
2023-02-13T21:26:36.532Z,7.30
2023-02-13T21:29:05.821Z,7.30
2023-02-13T21:31:36.106Z,7.30
2023-02-13T21:34:06.419Z,7.30
2023-02-13T21:36:37.706Z,7.20
2023-02-13T21:39:06.985Z,7.20
2023-02-13T21:41:37.280Z,7.10
2023-02-13T21:44:05.711Z,7.20
2023-02-13T21:46:35.196Z,7.40
2023-02-13T21:49:05.682Z,7.50
2023-02-13T21:51:36.623Z,7.50
2023-02-13T21:54:06.761Z,7.50
2023-02-13T21:56:37.053Z,7.40
2023-02-13T21:59:06.120Z,7.30
2023-02-13T22:01:46.641Z,7.20
2023-02-13T22:04:15.664Z,7.30
2023-02-13T22:06:49.440Z,7.30
2023-02-13T22:09:18.926Z,7.10
2023-02-13T22:11:47.180Z,7.10
2023-02-13T22:14:18.020Z,6.90
2023-02-13T22:16:47.502Z,6.90
2023-02-13T22:19:17.125Z,6.80
2023-02-13T22:21:46.738Z,6.70
2023-02-13T22:24:14.776Z,6.70
2023-02-13T22:26:45.169Z,6.50
2023-02-13T22:29:14.873Z,6.30
2023-02-13T22:31:43.051Z,6.10
2023-02-13T22:34:13.397Z,6.00
2023-02-13T22:36:42.788Z,5.90
2023-02-13T22:39:13.340Z,5.80
2023-02-13T22:41:44.397Z,5.80
2023-02-13T22:44:12.466Z,5.80
2023-02-13T22:46:40.593Z,5.80
2023-02-13T22:49:08.897Z,5.70
2023-02-13T22:51:37.983Z,5.70
2023-02-13T22:54:06.696Z,5.80
2023-02-13T22:56:36.144Z,5.90
2023-02-13T22:59:04.571Z,6.00
2023-02-13T23:01:32.548Z,6.20
2023-02-13T23:04:01.008Z,6.20
2023-02-13T23:06:29.293Z,6.30
2023-02-13T23:08:57.800Z,6.10
2023-02-13T23:11:44.931Z,6.10
2023-02-13T23:14:15.131Z,6.10
2023-02-13T23:17:01.007Z,6.10
2023-02-13T23:19:30.390Z,6.10
2023-02-13T23:21:58.740Z,6.00
2023-02-13T23:24:27.050Z,6.00
2023-02-13T23:26:55.111Z,6.00
2023-02-13T23:29:25.230Z,6.10
2023-02-13T23:31:54.140Z,6.00
2023-02-13T23:34:22.395Z,6.00
2023-02-13T23:36:50.712Z,5.90
2023-02-13T23:39:19.809Z,5.90
2023-02-13T23:41:48.237Z,5.90
2023-02-13T23:44:16.303Z,5.90
2023-02-13T23:46:46.611Z,5.90
2023-02-13T23:49:14.970Z,5.80
2023-02-13T23:51:43.318Z,5.80
2023-02-13T23:54:15.547Z,5.70
2023-02-13T23:56:43.789Z,5.70
2023-02-13T23:59:12.125Z,5.70
